Villabona, Spain
Current Conditions -  °F | °C
As of 9:30 PM on Friday 19 Dec 2014 (Local Time) from LESO Reporting Station
Broken Clouds Broken Clouds  
Wind Chill: 54°   Ceiling: 4500
Heat Index: 54°   Visibility: 6mi
Dew Point: 46°   Wind: 5mph
Humidity: 77%   Direction: 210°SSW
Pressure: 30.53"   Gusts: NA
Location:  43.19°N, 2.05°W
Report Text: LESO 192030Z 21004KT 9999 BKN045 12/08 Q1034
Loading
Personal Weather Stations






























Interactive Weather Map New forecast layout! Learn more

10-Day Weather Forecast

Advertisements
Track Severe Weather on mobile